sensor_id;sensor_type;location;lat;lon;timestamp;temperature;humidity
15690;DHT22;7945;48.816;11.506;2023-04-16T00:02:19;8.80;99.90
15690;DHT22;7945;48.816;11.506;2023-04-16T00:04:46;8.90;99.90
15690;DHT22;7945;48.816;11.506;2023-04-16T00:07:14;8.80;99.90
15690;DHT22;7945;48.816;11.506;2023-04-16T00:09:40;8.80;99.90
15690;DHT22;7945;48.816;11.506;2023-04-16T00:12:07;8.80;99.90
15690;DHT22;7945;48.816;11.506;2023-04-16T00:14:34;8.80;99.90
15690;DHT22;7945;48.816;11.506;2023-04-16T00:17:00;9.10;99.90
15690;DHT22;7945;48.816;11.506;2023-04-16T00:19:27;9.10;99.90
15690;DHT22;7945;48.816;11.506;2023-04-16T00:21:54;9.10;99.90
15690;DHT22;7945;48.816;11.506;2023-04-16T00:24:22;9.00;99.90
15690;DHT22;7945;48.816;11.506;2023-04-16T00:26:49;9.00;99.90
15690;DHT22;7945;48.816;11.506;2023-04-16T00:29:15;8.80;99.90
15690;DHT22;7945;48.816;11.506;2023-04-16T00:31:42;8.80;99.90
15690;DHT22;7945;48.816;11.506;2023-04-16T00:34:09;8.80;99.90
15690;DHT22;7945;48.816;11.506;2023-04-16T00:36:36;8.80;99.90
15690;DHT22;7945;48.816;11.506;2023-04-16T00:39:02;8.70;99.90
15690;DHT22;7945;48.816;11.506;2023-04-16T00:41:30;8.70;99.90
15690;DHT22;7945;48.816;11.506;2023-04-16T00:43:57;8.70;99.90
15690;DHT22;7945;48.816;11.506;2023-04-16T00:46:24;8.70;99.90
15690;DHT22;7945;48.816;11.506;2023-04-16T00:48:53;8.70;99.90
15690;DHT22;7945;48.816;11.506;2023-04-16T00:51:20;8.80;99.90
15690;DHT22;7945;48.816;11.506;2023-04-16T00:53:48;8.70;99.90
15690;DHT22;7945;48.816;11.506;2023-04-16T00:56:14;8.70;99.90
15690;DHT22;7945;48.816;11.506;2023-04-16T00:58:43;8.70;99.90
15690;DHT22;7945;48.816;11.506;2023-04-16T01:01:10;8.70;99.90
15690;DHT22;7945;48.816;11.506;2023-04-16T01:03:43;8.70;99.90
15690;DHT22;7945;48.816;11.506;2023-04-16T01:06:10;8.70;99.90
15690;DHT22;7945;48.816;11.506;2023-04-16T01:08:38;8.70;99.90
15690;DHT22;7945;48.816;11.506;2023-04-16T01:11:05;8.70;99.90
15690;DHT22;7945;48.816;11.506;2023-04-16T01:13:32;8.70;99.90
15690;DHT22;7945;48.816;11.506;2023-04-16T01:16:00;8.80;99.90
15690;DHT22;7945;48.816;11.506;2023-04-16T01:18:27;8.80;99.90
15690;DHT22;7945;48.816;11.506;2023-04-16T01:20:55;8.80;99.90
15690;DHT22;7945;48.816;11.506;2023-04-16T01:23:22;8.80;99.90
15690;DHT22;7945;48.816;11.506;2023-04-16T01:25:48;8.80;99.90
15690;DHT22;7945;48.816;11.506;2023-04-16T01:28:15;8.80;99.90
15690;DHT22;7945;48.816;11.506;2023-04-16T01:30:42;8.70;99.90
15690;DHT22;7945;48.816;11.506;2023-04-16T01:33:10;8.70;99.90
15690;DHT22;7945;48.816;11.506;2023-04-16T01:35:37;8.70;99.90
15690;DHT22;7945;48.816;11.506;2023-04-16T01:38:07;8.70;99.90
15690;DHT22;7945;48.816;11.506;2023-04-16T01:40:35;8.70;99.90
15690;DHT22;7945;48.816;11.506;2023-04-16T01:43:02;8.60;99.90
15690;DHT22;7945;48.816;11.506;2023-04-16T01:45:30;8.60;99.90
15690;DHT22;7945;48.816;11.506;2023-04-16T01:47:57;8.60;99.90
15690;DHT22;7945;48.816;11.506;2023-04-16T01:50:24;8.50;99.90
15690;DHT22;7945;48.816;11.506;2023-04-16T01:52:51;8.50;99.90
15690;DHT22;7945;48.816;11.506;2023-04-16T01:55:19;8.40;99.90
15690;DHT22;7945;48.816;11.506;2023-04-16T01:57:46;8.50;99.90
15690;DHT22;7945;48.816;11.506;2023-04-16T02:00:12;8.40;99.90
15690;DHT22;7945;48.816;11.506;2023-04-16T02:02:39;8.40;99.90
15690;DHT22;7945;48.816;11.506;2023-04-16T02:05:06;8.40;99.90
15690;DHT22;7945;48.816;11.506;2023-04-16T02:07:33;8.40;99.90
15690;DHT22;7945;48.816;11.506;2023-04-16T02:10:00;8.40;99.90
15690;DHT22;7945;48.816;11.506;2023-04-16T02:12:30;8.30;99.90
15690;DHT22;7945;48.816;11.506;2023-04-16T02:14:57;8.40;99.90
15690;DHT22;7945;48.816;11.506;2023-04-16T02:17:24;8.40;99.90
15690;DHT22;7945;48.816;11.506;2023-04-16T02:19:51;8.40;99.90
15690;DHT22;7945;48.816;11.506;2023-04-16T02:22:17;8.40;99.90
15690;DHT22;7945;48.816;11.506;2023-04-16T02:24:44;8.40;99.90
15690;DHT22;7945;48.816;11.506;2023-04-16T02:27:11;8.30;99.90
15690;DHT22;7945;48.816;11.506;2023-04-16T02:29:39;8.30;99.90
15690;DHT22;7945;48.816;11.506;2023-04-16T02:32:06;8.30;99.90
15690;DHT22;7945;48.816;11.506;2023-04-16T02:34:32;8.30;99.90
15690;DHT22;7945;48.816;11.506;2023-04-16T02:36:59;8.30;99.90
15690;DHT22;7945;48.816;11.506;2023-04-16T02:39:26;8.30;99.90
15690;DHT22;7945;48.816;11.506;2023-04-16T02:41:53;8.30;99.90
15690;DHT22;7945;48.816;11.506;2023-04-16T02:44:20;8.40;99.90
15690;DHT22;7945;48.816;11.506;2023-04-16T02:46:48;8.40;99.90
15690;DHT22;7945;48.816;11.506;2023-04-16T02:49:15;8.40;99.90
15690;DHT22;7945;48.816;11.506;2023-04-16T02:51:42;8.50;99.90
15690;DHT22;7945;48.816;11.506;2023-04-16T02:54:09;8.40;99.90
15690;DHT22;7945;48.816;11.506;2023-04-16T02:56:35;8.40;99.90
15690;DHT22;7945;48.816;11.506;2023-04-16T02:59:02;8.40;99.90
15690;DHT22;7945;48.816;11.506;2023-04-16T03:01:29;8.30;99.90
15690;DHT22;7945;48.816;11.506;2023-04-16T03:03:57;8.30;99.90
15690;DHT22;7945;48.816;11.506;2023-04-16T03:06:24;8.30;99.90
15690;DHT22;7945;48.816;11.506;2023-04-16T03:08:51;8.30;99.90
15690;DHT22;7945;48.816;11.506;2023-04-16T03:11:18;8.30;99.90
15690;DHT22;7945;48.816;11.506;2023-04-16T03:13:45;8.30;99.90
15690;DHT22;7945;48.816;11.506;2023-04-16T03:16:11;8.40;99.90
15690;DHT22;7945;48.816;11.506;2023-04-16T03:18:38;8.40;99.90
15690;DHT22;7945;48.816;11.506;2023-04-16T03:21:06;8.40;99.90
15690;DHT22;7945;48.816;11.506;2023-04-16T03:23:33;8.40;99.90
15690;DHT22;7945;48.816;11.506;2023-04-16T03:26:00;8.40;99.90
15690;DHT22;7945;48.816;11.506;2023-04-16T03:28:27;8.40;99.90
15690;DHT22;7945;48.816;11.506;2023-04-16T03:30:54;8.40;99.90
15690;DHT22;7945;48.816;11.506;2023-04-16T03:33:20;8.30;99.90
15690;DHT22;7945;48.816;11.506;2023-04-16T03:35:54;8.30;99.90
15690;DHT22;7945;48.816;11.506;2023-04-16T03:38:22;8.30;99.90
15690;DHT22;7945;48.816;11.506;2023-04-16T03:40:49;9.30;99.90
15690;DHT22;7945;48.816;11.506;2023-04-16T03:43:16;8.30;99.90
15690;DHT22;7945;48.816;11.506;2023-04-16T03:45:43;8.30;99.90
15690;DHT22;7945;48.816;11.506;2023-04-16T03:48:10;8.30;99.90
15690;DHT22;7945;48.816;11.506;2023-04-16T03:50:37;8.40;99.90
15690;DHT22;7945;48.816;11.506;2023-04-16T03:53:03;8.30;99.90
15690;DHT22;7945;48.816;11.506;2023-04-16T03:55:31;8.40;99.90
15690;DHT22;7945;48.816;11.506;2023-04-16T03:57:58;8.30;99.90
15690;DHT22;7945;48.816;11.506;2023-04-16T04:00:27;8.30;99.90
15690;DHT22;7945;48.816;11.506;2023-04-16T04:02:54;8.30;99.90
15690;DHT22;7945;48.816;11.506;2023-04-16T04:05:21;8.30;99.90
15690;DHT22;7945;48.816;11.506;2023-04-16T04:07:48;8.30;99.90
15690;DHT22;7945;48.816;11.506;2023-04-16T04:10:15;8.30;99.90
15690;DHT22;7945;48.816;11.506;2023-04-16T04:12:43;8.30;99.90
15690;DHT22;7945;48.816;11.506;2023-04-16T04:15:10;8.40;99.90
15690;DHT22;7945;48.816;11.506;2023-04-16T04:17:37;8.30;99.90
15690;DHT22;7945;48.816;11.506;2023-04-16T04:20:05;8.30;99.90
15690;DHT22;7945;48.816;11.506;2023-04-16T04:22:31;8.30;99.90
15690;DHT22;7945;48.816;11.506;2023-04-16T04:24:58;8.40;99.90
15690;DHT22;7945;48.816;11.506;2023-04-16T04:27:25;8.30;99.90
15690;DHT22;7945;48.816;11.506;2023-04-16T04:29:53;8.30;99.90
15690;DHT22;7945;48.816;11.506;2023-04-16T04:32:20;8.40;99.90
15690;DHT22;7945;48.816;11.506;2023-04-16T04:34:46;8.30;99.90
15690;DHT22;7945;48.816;11.506;2023-04-16T04:37:13;8.30;99.90
15690;DHT22;7945;48.816;11.506;2023-04-16T04:39:40;8.30;99.90
15690;DHT22;7945;48.816;11.506;2023-04-16T04:42:07;8.30;99.90
15690;DHT22;7945;48.816;11.506;2023-04-16T04:44:34;8.30;99.90
15690;DHT22;7945;48.816;11.506;2023-04-16T04:47:02;8.40;99.90
15690;DHT22;7945;48.816;11.506;2023-04-16T04:49:29;8.30;99.90
15690;DHT22;7945;48.816;11.506;2023-04-16T04:51:56;8.40;99.90
15690;DHT22;7945;48.816;11.506;2023-04-16T04:54:22;8.40;99.90
15690;DHT22;7945;48.816;11.506;2023-04-16T04:56:49;8.40;99.90
15690;DHT22;7945;48.816;11.506;2023-04-16T04:59:17;8.40;99.90
15690;DHT22;7945;48.816;11.506;2023-04-16T05:01:43;8.40;99.90
15690;DHT22;7945;48.816;11.506;2023-04-16T05:04:11;8.50;99.90
15690;DHT22;7945;48.816;11.506;2023-04-16T05:06:38;8.50;99.90
15690;DHT22;7945;48.816;11.506;2023-04-16T05:09:05;8.50;99.90
15690;DHT22;7945;48.816;11.506;2023-04-16T05:11:36;8.50;99.90
15690;DHT22;7945;48.816;11.506;2023-04-16T05:14:02;8.60;99.90
15690;DHT22;7945;48.816;11.506;2023-04-16T05:16:29;8.50;99.90
15690;DHT22;7945;48.816;11.506;2023-04-16T05:18:56;8.50;99.90
15690;DHT22;7945;48.816;11.506;2023-04-16T05:21:24;8.50;99.90
15690;DHT22;7945;48.816;11.506;2023-04-16T05:23:51;8.50;99.90
15690;DHT22;7945;48.816;11.506;2023-04-16T05:26:18;8.50;99.90
15690;DHT22;7945;48.816;11.506;2023-04-16T05:28:45;8.50;99.90
15690;DHT22;7945;48.816;11.506;2023-04-16T05:31:12;8.50;99.90
15690;DHT22;7945;48.816;11.506;2023-04-16T05:33:38;8.50;99.90
15690;DHT22;7945;48.816;11.506;2023-04-16T05:36:05;8.60;99.90
15690;DHT22;7945;48.816;11.506;2023-04-16T05:38:33;8.60;99.90
15690;DHT22;7945;48.816;11.506;2023-04-16T05:41:00;8.60;99.90
15690;DHT22;7945;48.816;11.506;2023-04-16T05:43:27;8.60;99.90
15690;DHT22;7945;48.816;11.506;2023-04-16T05:45:54;8.60;99.90
15690;DHT22;7945;48.816;11.506;2023-04-16T05:48:20;8.70;99.90
15690;DHT22;7945;48.816;11.506;2023-04-16T05:50:48;8.60;99.90
15690;DHT22;7945;48.816;11.506;2023-04-16T05:53:15;8.60;99.90
15690;DHT22;7945;48.816;11.506;2023-04-16T05:55:44;8.70;99.90
15690;DHT22;7945;48.816;11.506;2023-04-16T05:58:12;8.70;99.90
15690;DHT22;7945;48.816;11.506;2023-04-16T06:00:38;8.70;99.90
15690;DHT22;7945;48.816;11.506;2023-04-16T06:03:05;8.80;99.90
15690;DHT22;7945;48.816;11.506;2023-04-16T06:05:32;8.80;99.90
15690;DHT22;7945;48.816;11.506;2023-04-16T06:07:59;8.80;99.90
15690;DHT22;7945;48.816;11.506;2023-04-16T06:10:25;8.80;99.90
15690;DHT22;7945;48.816;11.506;2023-04-16T06:15:21;8.80;99.90
15690;DHT22;7945;48.816;11.506;2023-04-16T06:17:48;8.80;99.90
15690;DHT22;7945;48.816;11.506;2023-04-16T06:20:15;8.80;99.90
15690;DHT22;7945;48.816;11.506;2023-04-16T06:22:42;8.80;99.90
15690;DHT22;7945;48.816;11.506;2023-04-16T06:25:09;8.80;99.90
15690;DHT22;7945;48.816;11.506;2023-04-16T06:27:36;8.80;99.90
15690;DHT22;7945;48.816;11.506;2023-04-16T06:30:03;8.80;99.90
15690;DHT22;7945;48.816;11.506;2023-04-16T06:32:31;8.90;99.90
15690;DHT22;7945;48.816;11.506;2023-04-16T06:34:58;9.00;99.90
15690;DHT22;7945;48.816;11.506;2023-04-16T06:37:24;9.00;99.90
15690;DHT22;7945;48.816;11.506;2023-04-16T06:39:51;9.10;99.90
15690;DHT22;7945;48.816;11.506;2023-04-16T06:42:19;9.10;99.90
15690;DHT22;7945;48.816;11.506;2023-04-16T06:44:46;9.10;99.90
15690;DHT22;7945;48.816;11.506;2023-04-16T06:47:13;9.10;99.90
15690;DHT22;7945;48.816;11.506;2023-04-16T06:49:41;9.20;99.90
15690;DHT22;7945;48.816;11.506;2023-04-16T06:52:07;9.20;99.90
15690;DHT22;7945;48.816;11.506;2023-04-16T06:54:35;9.20;99.90
15690;DHT22;7945;48.816;11.506;2023-04-16T06:57:01;9.20;99.90
15690;DHT22;7945;48.816;11.506;2023-04-16T06:59:28;9.20;99.90
15690;DHT22;7945;48.816;11.506;2023-04-16T07:01:55;9.20;99.90
15690;DHT22;7945;48.816;11.506;2023-04-16T07:04:22;9.30;99.90
15690;DHT22;7945;48.816;11.506;2023-04-16T07:06:50;9.30;99.90
15690;DHT22;7945;48.816;11.506;2023-04-16T07:09:17;9.30;99.90
15690;DHT22;7945;48.816;11.506;2023-04-16T07:11:44;9.30;99.90
15690;DHT22;7945;48.816;11.506;2023-04-16T07:14:11;9.30;99.90
15690;DHT22;7945;48.816;11.506;2023-04-16T07:16:37;9.40;99.90
15690;DHT22;7945;48.816;11.506;2023-04-16T07:19:05;9.40;99.90
15690;DHT22;7945;48.816;11.506;2023-04-16T07:21:31;9.40;99.90
15690;DHT22;7945;48.816;11.506;2023-04-16T07:23:59;9.40;99.90
15690;DHT22;7945;48.816;11.506;2023-04-16T07:26:26;9.40;99.90
15690;DHT22;7945;48.816;11.506;2023-04-16T07:28:53;9.40;99.90
15690;DHT22;7945;48.816;11.506;2023-04-16T07:31:20;9.40;99.90
15690;DHT22;7945;48.816;11.506;2023-04-16T07:33:46;9.40;99.90
15690;DHT22;7945;48.816;11.506;2023-04-16T07:36:13;9.50;99.90
15690;DHT22;7945;48.816;11.506;2023-04-16T07:38:40;9.50;99.90
15690;DHT22;7945;48.816;11.506;2023-04-16T07:41:08;9.60;99.90
15690;DHT22;7945;48.816;11.506;2023-04-16T07:43:35;9.70;99.90
15690;DHT22;7945;48.816;11.506;2023-04-16T07:46:02;9.70;99.90
15690;DHT22;7945;48.816;11.506;2023-04-16T07:48:29;9.80;99.90
15690;DHT22;7945;48.816;11.506;2023-04-16T07:50:55;9.90;99.90
15690;DHT22;7945;48.816;11.506;2023-04-16T07:53:23;9.90;99.90
15690;DHT22;7945;48.816;11.506;2023-04-16T07:55:49;10.00;99.90
15690;DHT22;7945;48.816;11.506;2023-04-16T07:58:17;10.00;99.90
15690;DHT22;7945;48.816;11.506;2023-04-16T08:00:44;10.10;99.90
15690;DHT22;7945;48.816;11.506;2023-04-16T08:03:11;10.10;99.90
15690;DHT22;7945;48.816;11.506;2023-04-16T08:05:37;10.20;99.90
15690;DHT22;7945;48.816;11.506;2023-04-16T08:08:04;10.40;99.90
15690;DHT22;7945;48.816;11.506;2023-04-16T08:10:32;10.50;99.90
15690;DHT22;7945;48.816;11.506;2023-04-16T08:12:59;10.60;99.90
15690;DHT22;7945;48.816;11.506;2023-04-16T08:15:27;10.70;99.90
15690;DHT22;7945;48.816;11.506;2023-04-16T08:17:54;10.80;99.90
15690;DHT22;7945;48.816;11.506;2023-04-16T08:20:21;10.90;99.90
15690;DHT22;7945;48.816;11.506;2023-04-16T08:22:48;11.00;99.90
15690;DHT22;7945;48.816;11.506;2023-04-16T08:25:14;11.10;99.90
15690;DHT22;7945;48.816;11.506;2023-04-16T08:27:41;11.10;99.90
15690;DHT22;7945;48.816;11.506;2023-04-16T08:30:08;11.20;99.90
15690;DHT22;7945;48.816;11.506;2023-04-16T08:32:36;11.20;99.90
15690;DHT22;7945;48.816;11.506;2023-04-16T08:35:04;11.20;99.90
15690;DHT22;7945;48.816;11.506;2023-04-16T08:37:31;11.10;99.90
15690;DHT22;7945;48.816;11.506;2023-04-16T08:39:58;11.10;99.90
15690;DHT22;7945;48.816;11.506;2023-04-16T08:42:29;11.10;99.90
15690;DHT22;7945;48.816;11.506;2023-04-16T08:45:03;11.20;99.90
15690;DHT22;7945;48.816;11.506;2023-04-16T08:47:33;11.20;99.90
15690;DHT22;7945;48.816;11.506;2023-04-16T08:50:02;11.20;99.90
15690;DHT22;7945;48.816;11.506;2023-04-16T08:52:30;11.30;99.90
15690;DHT22;7945;48.816;11.506;2023-04-16T08:55:03;11.30;99.90
15690;DHT22;7945;48.816;11.506;2023-04-16T08:57:36;11.40;99.90
15690;DHT22;7945;48.816;11.506;2023-04-16T09:00:06;11.40;99.90
15690;DHT22;7945;48.816;11.506;2023-04-16T09:02:34;11.40;99.90
15690;DHT22;7945;48.816;11.506;2023-04-16T09:05:04;11.50;99.90
15690;DHT22;7945;48.816;11.506;2023-04-16T09:07:33;11.60;99.90
15690;DHT22;7945;48.816;11.506;2023-04-16T09:10:00;11.60;99.90
15690;DHT22;7945;48.816;11.506;2023-04-16T09:12:27;11.70;99.90
15690;DHT22;7945;48.816;11.506;2023-04-16T09:14:56;11.70;99.90
15690;DHT22;7945;48.816;11.506;2023-04-16T09:17:24;11.80;99.90
15690;DHT22;7945;48.816;11.506;2023-04-16T09:19:51;11.90;99.90
15690;DHT22;7945;48.816;11.506;2023-04-16T09:22:20;11.90;99.90
15690;DHT22;7945;48.816;11.506;2023-04-16T09:24:46;12.00;99.90
15690;DHT22;7945;48.816;11.506;2023-04-16T09:27:13;11.90;99.90
15690;DHT22;7945;48.816;11.506;2023-04-16T09:29:41;12.00;99.90
15690;DHT22;7945;48.816;11.506;2023-04-16T09:32:09;12.00;99.90
15690;DHT22;7945;48.816;11.506;2023-04-16T09:34:54;12.00;99.90
15690;DHT22;7945;48.816;11.506;2023-04-16T09:37:23;12.10;99.90
15690;DHT22;7945;48.816;11.506;2023-04-16T09:39:55;12.10;99.90
15690;DHT22;7945;48.816;11.506;2023-04-16T09:42:23;12.20;99.90
15690;DHT22;7945;48.816;11.506;2023-04-16T09:44:52;12.20;99.90
15690;DHT22;7945;48.816;11.506;2023-04-16T09:47:19;12.20;99.90
15690;DHT22;7945;48.816;11.506;2023-04-16T09:49:46;12.20;99.90
15690;DHT22;7945;48.816;11.506;2023-04-16T09:52:14;12.30;99.90
15690;DHT22;7945;48.816;11.506;2023-04-16T09:54:47;12.30;99.90
15690;DHT22;7945;48.816;11.506;2023-04-16T09:57:16;12.30;99.90
15690;DHT22;7945;48.816;11.506;2023-04-16T09:59:45;12.30;99.90
15690;DHT22;7945;48.816;11.506;2023-04-16T10:02:12;12.20;99.90
15690;DHT22;7945;48.816;11.506;2023-04-16T10:04:46;12.20;99.90
15690;DHT22;7945;48.816;11.506;2023-04-16T10:07:13;12.20;99.90
15690;DHT22;7945;48.816;11.506;2023-04-16T10:09:40;12.10;99.90
15690;DHT22;7945;48.816;11.506;2023-04-16T10:12:09;12.10;99.90
15690;DHT22;7945;48.816;11.506;2023-04-16T10:14:37;12.10;99.90
15690;DHT22;7945;48.816;11.506;2023-04-16T10:17:04;12.00;99.90
15690;DHT22;7945;48.816;11.506;2023-04-16T10:19:31;12.10;99.90
15690;DHT22;7945;48.816;11.506;2023-04-16T10:21:59;12.00;99.90
15690;DHT22;7945;48.816;11.506;2023-04-16T10:24:27;11.90;99.90
15690;DHT22;7945;48.816;11.506;2023-04-16T10:26:54;11.70;99.90
15690;DHT22;7945;48.816;11.506;2023-04-16T10:29:23;11.60;99.90
15690;DHT22;7945;48.816;11.506;2023-04-16T10:31:51;11.60;99.90
15690;DHT22;7945;48.816;11.506;2023-04-16T10:34:18;11.50;99.90
15690;DHT22;7945;48.816;11.506;2023-04-16T10:36:47;11.40;99.90
15690;DHT22;7945;48.816;11.506;2023-04-16T10:39:17;11.40;99.90
15690;DHT22;7945;48.816;11.506;2023-04-16T10:41:44;11.40;99.90
15690;DHT22;7945;48.816;11.506;2023-04-16T10:44:11;11.40;99.90
15690;DHT22;7945;48.816;11.506;2023-04-16T10:46:40;11.40;99.90
15690;DHT22;7945;48.816;11.506;2023-04-16T10:49:15;11.40;99.90
15690;DHT22;7945;48.816;11.506;2023-04-16T10:51:51;11.40;99.90
15690;DHT22;7945;48.816;11.506;2023-04-16T10:54:21;11.40;99.90
15690;DHT22;7945;48.816;11.506;2023-04-16T10:56:49;11.30;99.90
15690;DHT22;7945;48.816;11.506;2023-04-16T10:59:17;11.30;99.90
15690;DHT22;7945;48.816;11.506;2023-04-16T11:01:47;11.30;99.90
15690;DHT22;7945;48.816;11.506;2023-04-16T11:04:28;11.30;99.90
15690;DHT22;7945;48.816;11.506;2023-04-16T11:07:13;11.30;99.90
15690;DHT22;7945;48.816;11.506;2023-04-16T11:09:46;11.30;99.90
15690;DHT22;7945;48.816;11.506;2023-04-16T11:12:15;11.30;99.90
15690;DHT22;7945;48.816;11.506;2023-04-16T11:14:46;11.30;99.90
15690;DHT22;7945;48.816;11.506;2023-04-16T11:17:15;11.40;99.90
15690;DHT22;7945;48.816;11.506;2023-04-16T11:19:42;11.40;99.90
15690;DHT22;7945;48.816;11.506;2023-04-16T11:22:11;11.40;99.90
15690;DHT22;7945;48.816;11.506;2023-04-16T11:24:38;11.40;99.90
15690;DHT22;7945;48.816;11.506;2023-04-16T11:27:06;11.50;99.90
15690;DHT22;7945;48.816;11.506;2023-04-16T11:29:32;11.40;99.90
15690;DHT22;7945;48.816;11.506;2023-04-16T11:31:59;11.50;99.90
15690;DHT22;7945;48.816;11.506;2023-04-16T11:34:28;11.60;99.90
15690;DHT22;7945;48.816;11.506;2023-04-16T11:36:55;11.70;99.90
15690;DHT22;7945;48.816;11.506;2023-04-16T11:39:22;11.80;99.90
15690;DHT22;7945;48.816;11.506;2023-04-16T11:41:50;11.80;99.90
15690;DHT22;7945;48.816;11.506;2023-04-16T11:44:19;11.90;99.90
15690;DHT22;7945;48.816;11.506;2023-04-16T11:46:46;12.00;99.90
15690;DHT22;7945;48.816;11.506;2023-04-16T11:49:13;12.10;99.90
15690;DHT22;7945;48.816;11.506;2023-04-16T11:51:44;12.20;99.90
15690;DHT22;7945;48.816;11.506;2023-04-16T11:54:17;12.30;99.90
15690;DHT22;7945;48.816;11.506;2023-04-16T11:56:46;12.50;99.90
15690;DHT22;7945;48.816;11.506;2023-04-16T11:59:15;12.60;99.90
15690;DHT22;7945;48.816;11.506;2023-04-16T12:01:45;12.70;99.90
15690;DHT22;7945;48.816;11.506;2023-04-16T12:04:12;12.80;99.90
15690;DHT22;7945;48.816;11.506;2023-04-16T12:06:40;12.90;99.90
15690;DHT22;7945;48.816;11.506;2023-04-16T12:09:24;13.00;99.90
15690;DHT22;7945;48.816;11.506;2023-04-16T12:11:51;13.10;99.90
15690;DHT22;7945;48.816;11.506;2023-04-16T12:14:18;13.20;99.90
15690;DHT22;7945;48.816;11.506;2023-04-16T12:16:45;13.40;99.90
15690;DHT22;7945;48.816;11.506;2023-04-16T12:19:12;13.50;99.90
15690;DHT22;7945;48.816;11.506;2023-04-16T12:21:40;13.70;99.80
15690;DHT22;7945;48.816;11.506;2023-04-16T12:24:09;13.80;99.80
15690;DHT22;7945;48.816;11.506;2023-04-16T12:26:43;13.90;99.50
15690;DHT22;7945;48.816;11.506;2023-04-16T12:29:15;13.90;99.40
15690;DHT22;7945;48.816;11.506;2023-04-16T12:31:42;13.80;99.10
15690;DHT22;7945;48.816;11.506;2023-04-16T12:34:08;13.80;99.30
15690;DHT22;7945;48.816;11.506;2023-04-16T12:36:35;13.80;99.10
15690;DHT22;7945;48.816;11.506;2023-04-16T12:39:02;13.70;98.80
15690;DHT22;7945;48.816;11.506;2023-04-16T12:41:29;13.70;99.20
15690;DHT22;7945;48.816;11.506;2023-04-16T12:44:04;13.60;99.00
15690;DHT22;7945;48.816;11.506;2023-04-16T12:46:34;13.60;99.30
15690;DHT22;7945;48.816;11.506;2023-04-16T12:49:01;13.50;99.40
15690;DHT22;7945;48.816;11.506;2023-04-16T12:51:27;13.40;99.20
15690;DHT22;7945;48.816;11.506;2023-04-16T12:53:54;13.40;99.30
15690;DHT22;7945;48.816;11.506;2023-04-16T12:56:21;13.40;99.20
15690;DHT22;7945;48.816;11.506;2023-04-16T12:58:48;13.50;99.30
15690;DHT22;7945;48.816;11.506;2023-04-16T13:01:17;13.50;99.50
15690;DHT22;7945;48.816;11.506;2023-04-16T13:03:44;13.60;99.00
15690;DHT22;7945;48.816;11.506;2023-04-16T13:06:11;13.60;98.60
15690;DHT22;7945;48.816;11.506;2023-04-16T13:08:38;13.60;98.70
15690;DHT22;7945;48.816;11.506;2023-04-16T13:11:06;13.60;98.80
15690;DHT22;7945;48.816;11.506;2023-04-16T13:13:33;13.60;99.00
15690;DHT22;7945;48.816;11.506;2023-04-16T13:15:59;13.60;99.20
15690;DHT22;7945;48.816;11.506;2023-04-16T13:18:29;13.70;99.00
15690;DHT22;7945;48.816;11.506;2023-04-16T13:20:57;13.70;98.90
15690;DHT22;7945;48.816;11.506;2023-04-16T13:23:24;13.70;98.90
15690;DHT22;7945;48.816;11.506;2023-04-16T13:25:51;13.60;98.90
15690;DHT22;7945;48.816;11.506;2023-04-16T13:28:18;13.60;99.20
15690;DHT22;7945;48.816;11.506;2023-04-16T13:30:45;13.60;99.00
15690;DHT22;7945;48.816;11.506;2023-04-16T13:33:12;13.50;99.20
15690;DHT22;7945;48.816;11.506;2023-04-16T13:35:40;13.50;99.30
15690;DHT22;7945;48.816;11.506;2023-04-16T13:38:07;13.60;99.00
15690;DHT22;7945;48.816;11.506;2023-04-16T13:40:33;13.70;99.00
15690;DHT22;7945;48.816;11.506;2023-04-16T13:43:00;13.80;98.60
15690;DHT22;7945;48.816;11.506;2023-04-16T13:45:27;13.80;98.60
15690;DHT22;7945;48.816;11.506;2023-04-16T13:47:54;13.90;98.10
15690;DHT22;7945;48.816;11.506;2023-04-16T13:50:21;13.90;98.00
15690;DHT22;7945;48.816;11.506;2023-04-16T13:52:49;13.80;98.40
15690;DHT22;7945;48.816;11.506;2023-04-16T13:55:16;13.90;98.40
15690;DHT22;7945;48.816;11.506;2023-04-16T13:57:44;14.00;98.90
15690;DHT22;7945;48.816;11.506;2023-04-16T14:00:12;14.10;98.30
15690;DHT22;7945;48.816;11.506;2023-04-16T14:02:40;14.10;98.20
15690;DHT22;7945;48.816;11.506;2023-04-16T14:05:07;14.10;97.80
15690;DHT22;7945;48.816;11.506;2023-04-16T14:07:34;14.10;98.40
15690;DHT22;7945;48.816;11.506;2023-04-16T14:10:02;14.10;98.10
15690;DHT22;7945;48.816;11.506;2023-04-16T14:12:29;14.10;98.30
15690;DHT22;7945;48.816;11.506;2023-04-16T14:14:57;14.00;98.30
15690;DHT22;7945;48.816;11.506;2023-04-16T14:17:23;14.00;98.50
15690;DHT22;7945;48.816;11.506;2023-04-16T14:19:50;14.00;98.50
15690;DHT22;7945;48.816;11.506;2023-04-16T14:22:17;14.00;98.30
15690;DHT22;7945;48.816;11.506;2023-04-16T14:24:44;14.00;98.40
15690;DHT22;7945;48.816;11.506;2023-04-16T14:27:12;14.00;98.60
15690;DHT22;7945;48.816;11.506;2023-04-16T14:29:39;13.90;98.30
15690;DHT22;7945;48.816;11.506;2023-04-16T14:32:06;13.90;98.40
15690;DHT22;7945;48.816;11.506;2023-04-16T14:34:33;13.80;98.50
15690;DHT22;7945;48.816;11.506;2023-04-16T14:36:59;13.70;98.60
15690;DHT22;7945;48.816;11.506;2023-04-16T14:39:26;13.70;98.50
15690;DHT22;7945;48.816;11.506;2023-04-16T14:41:53;13.60;98.90
15690;DHT22;7945;48.816;11.506;2023-04-16T14:44:21;13.60;99.00
15690;DHT22;7945;48.816;11.506;2023-04-16T14:46:48;13.60;99.20
15690;DHT22;7945;48.816;11.506;2023-04-16T14:49:14;13.60;99.30
15690;DHT22;7945;48.816;11.506;2023-04-16T14:51:42;13.60;99.40
15690;DHT22;7945;48.816;11.506;2023-04-16T14:54:11;13.60;99.30
15690;DHT22;7945;48.816;11.506;2023-04-16T14:56:38;13.60;99.60
15690;DHT22;7945;48.816;11.506;2023-04-16T14:59:05;13.60;99.50
15690;DHT22;7945;48.816;11.506;2023-04-16T15:01:33;13.60;99.40
15690;DHT22;7945;48.816;11.506;2023-04-16T15:04:00;13.40;99.90
15690;DHT22;7945;48.816;11.506;2023-04-16T15:06:28;13.30;99.90
15690;DHT22;7945;48.816;11.506;2023-04-16T15:08:56;13.20;99.90
15690;DHT22;7945;48.816;11.506;2023-04-16T15:11:23;13.00;99.90
15690;DHT22;7945;48.816;11.506;2023-04-16T15:13:51;12.90;99.90
15690;DHT22;7945;48.816;11.506;2023-04-16T15:16:18;12.80;99.90
15690;DHT22;7945;48.816;11.506;2023-04-16T15:18:46;12.70;99.90
15690;DHT22;7945;48.816;11.506;2023-04-16T15:21:13;12.60;99.90
15690;DHT22;7945;48.816;11.506;2023-04-16T15:23:40;12.50;99.90
15690;DHT22;7945;48.816;11.506;2023-04-16T15:26:07;12.40;99.90
15690;DHT22;7945;48.816;11.506;2023-04-16T15:28:34;12.30;99.90
15690;DHT22;7945;48.816;11.506;2023-04-16T15:31:00;12.40;99.90
15690;DHT22;7945;48.816;11.506;2023-04-16T15:33:27;12.40;99.90
15690;DHT22;7945;48.816;11.506;2023-04-16T15:35:55;12.30;99.90
15690;DHT22;7945;48.816;11.506;2023-04-16T15:38:22;12.40;99.90
15690;DHT22;7945;48.816;11.506;2023-04-16T15:40:49;12.30;99.90
15690;DHT22;7945;48.816;11.506;2023-04-16T15:43:15;12.30;99.90